CheckWX is a tool to help pilots better visualize weather data.  It is not intended as a substitute for an official pre-flight weather briefing.

23:49:32 UTC

KDZJ METAR
Blairsville Airport
Blairsville, Georgia, USA
Current

35 mins ago

KDZJ 192315Z AUTO 30007KT 10SM CLR 01/M08 A3015 RMK AO2 T00061078
Observed
Jan-19 @ 23:15 UTC
Wind
  • 300° at 7 KTS
Visibility
10 SM
Flight Rules
VFR
Cloud Levels
  • Clear skies
Temperature
C / 34°F
Dewpoint
-8°C / 18°F
Humidity
51%
Altimeter
30.15" Hg
Pressure
1021.02 hPa
Previous

55 mins ago

KDZJ 192255Z AUTO 33008G17KT 270V100 10SM CLR 01/M08 A3014 RMK AO2 T00101076
Observed
Jan-19 @ 22:55 UTC
Wind
  • 330° at 8 KTS
  • Gusting to 17 KTS
Visibility
10 SM
Flight Rules
VFR
Cloud Levels
  • Clear skies
Temperature
C / 34°F
Dewpoint
-8°C / 18°F
Humidity
51%
Altimeter
30.14" Hg
Pressure
1020.62 hPa
Previous

1 hour ago

KDZJ 192235Z AUTO 31006KT 10SM CLR 02/M08 A3014 RMK AO2 T00161076
Observed
Jan-19 @ 22:35 UTC
Wind
  • 310° at 6 KTS
Visibility
10 SM
Flight Rules
VFR
Cloud Levels
  • Clear skies
Temperature
C / 36°F
Dewpoint
-8°C / 18°F
Humidity
48%
Altimeter
30.14" Hg
Pressure
1020.62 hPa